Richmond, VA (23222)

3:59 PM EDT on August 22, 2014 (GMT -0400)
Laburnum Park/Ginter Park | Change Station
CLOSE
Current Station
Personal Weather Station
Location: Richmond, VA
Elevation: 195 ft
Nearby Weather Stations

Elev 195 ft 37.58 °N, 77.45 °W | Updated 7 seconds ago

Overcast
Overcast
83.2 °F
Feels Like 86 °F
N
0.0
Wind Variable Wind from WNW
Gusts 5.0 mph

Today
High -- | Low -- °F
--% Chance of Precip.
Yesterday
High -- | Low -- °F
Precip. -- in
6:31 AM 7:52 PM
Waning Crescent, 7% visible
Pressure 29.97 in
Visibility 10.0 miles
Clouds Few 3500 ft
Overcast 7000 ft
Heat Index 86 °F
Dew Point 67 °F
Humidity 58%
Rainfall 0.00 in
Snow Depth Not available.
UV 2 out of 12
Pollen 8.80 out of 12
Ozone Good
PM2.5 Good
Flu Activity Not available.
METAR KRIC 221954Z 33005KT 10SM FEW035 OVC070 28/20 A2996 RMK AO2 SLP147 T02830200

More Conditions Fewer Conditions

Pressure 29.97 in
Visibility 10.0 miles
Clouds Few 3500 ft
Overcast 7000 ft
Heat Index 86 °F
Dew Point 67 °F
Humidity 58%
Rainfall 0.00 in
Snow Depth Not available.
UV 2 out of 12
Pollen 8.80 out of 12
Ozone Good
PM2.5 Good
Flu Activity Not available.
METAR KRIC 221954Z 33005KT 10SM FEW035 OVC070 28/20 A2996 RMK AO2 SLP147 T02830200

More Conditions Fewer Conditions

10-Day Weather Forecast

Almanac

Astronomy

Aug. 22, 2014 Rise Set
Actual Time 6:31 AM EDT 7:52 PM EDT
Civil Twilight 6:04 AM EDT 8:20 PM EDT
Nautical Twilight 5:31 AM EDT 8:52 PM EDT
Astronomical Twilight 4:56 AM EDT 9:27 PM EDT
Moon 3:53 AM EDT 5:59 PM EDT
Length of Visible Light 14h 16m
Length of Day
13h 21m
Tomorrow will be 2m 14s shorter.
Waning Crescent, 7% of the Moon is Illuminated
Today
Waning Crescent
Aug 25
New
Sep 2
First Quarter
Sep 8
Full
Sep 15
Last Quarter

Today's Extremes

State Highs State Lows

Community

WunderPhotos

Upload Photos

1,746,227 photos uploaded!

Nearby

Air Quality

  Air Quality AQ Index Pollutant
Yesterday Good
OZONE
Yesterday Good
PM2.5
Current Good
PM2.5
Current Good
OZONE
Friday Good
OZONE
Friday Good
PM2.5
Saturday Good
OZONE
Saturday Good
PM2.5
Sunday Good
OZONE
Sunday Good
PM2.5
Monday Good
OZONE
Monday Good
PM2.5

Snow Depth

Station Depth Elevation
No new snow has been reported.

Earthquake Activity

City Distance Mag. Time & Date
No recent earthquake activity has been reported nearby.
Minimum magnitude displayed is 2.5.

Coastal Water Temperatures

Place Temperature
No Stations Reporting

Nearby Weather Stations